sensor_id;sensor_type;location;lat;lon;timestamp;temperature;humidity
57434;DHT22;43277;52.672;6.984;2023-09-19T00:01:07;15.20;99.90
57434;DHT22;43277;52.672;6.984;2023-09-19T00:03:37;15.10;99.90
57434;DHT22;43277;52.672;6.984;2023-09-19T00:06:03;15.10;99.90
57434;DHT22;43277;52.672;6.984;2023-09-19T00:08:30;15.00;99.90
57434;DHT22;43277;52.672;6.984;2023-09-19T00:10:56;15.00;99.90
57434;DHT22;43277;52.672;6.984;2023-09-19T00:13:30;14.90;99.90
57434;DHT22;43277;52.672;6.984;2023-09-19T00:15:56;14.90;99.90
57434;DHT22;43277;52.672;6.984;2023-09-19T00:18:25;14.90;99.90
57434;DHT22;43277;52.672;6.984;2023-09-19T00:21:01;14.80;99.90
57434;DHT22;43277;52.672;6.984;2023-09-19T00:23:27;14.80;99.90
57434;DHT22;43277;52.672;6.984;2023-09-19T00:25:53;14.70;99.90
57434;DHT22;43277;52.672;6.984;2023-09-19T00:28:22;14.80;99.90
57434;DHT22;43277;52.672;6.984;2023-09-19T00:30:48;14.70;99.90
57434;DHT22;43277;52.672;6.984;2023-09-19T00:33:20;14.80;99.90
57434;DHT22;43277;52.672;6.984;2023-09-19T00:35:49;14.70;99.90
57434;DHT22;43277;52.672;6.984;2023-09-19T00:38:15;14.60;99.90
57434;DHT22;43277;52.672;6.984;2023-09-19T00:40:47;14.60;99.90
57434;DHT22;43277;52.672;6.984;2023-09-19T00:43:13;14.50;99.90
57434;DHT22;43277;52.672;6.984;2023-09-19T00:45:43;14.60;99.90
57434;DHT22;43277;52.672;6.984;2023-09-19T00:48:09;14.70;99.90
57434;DHT22;43277;52.672;6.984;2023-09-19T00:50:36;14.70;99.90
57434;DHT22;43277;52.672;6.984;2023-09-19T00:53:02;14.60;99.90
57434;DHT22;43277;52.672;6.984;2023-09-19T00:55:35;14.60;99.90
57434;DHT22;43277;52.672;6.984;2023-09-19T00:58:02;14.60;99.90
57434;DHT22;43277;52.672;6.984;2023-09-19T01:00:28;14.70;99.90
57434;DHT22;43277;52.672;6.984;2023-09-19T01:02:54;14.60;99.90
57434;DHT22;43277;52.672;6.984;2023-09-19T01:05:20;14.60;99.90
57434;DHT22;43277;52.672;6.984;2023-09-19T01:07:46;14.60;99.90
57434;DHT22;43277;52.672;6.984;2023-09-19T01:10:16;14.60;99.90
57434;DHT22;43277;52.672;6.984;2023-09-19T01:13:05;14.60;99.90
57434;DHT22;43277;52.672;6.984;2023-09-19T01:18:25;14.60;99.90
57434;DHT22;43277;52.672;6.984;2023-09-19T01:21:18;14.60;99.90
57434;DHT22;43277;52.672;6.984;2023-09-19T01:29:47;14.70;99.90
57434;DHT22;43277;52.672;6.984;2023-09-19T01:32:17;14.70;99.90
57434;DHT22;43277;52.672;6.984;2023-09-19T01:34:57;14.70;99.90
57434;DHT22;43277;52.672;6.984;2023-09-19T01:37:29;14.70;99.90
57434;DHT22;43277;52.672;6.984;2023-09-19T01:40:07;14.70;99.90
57434;DHT22;43277;52.672;6.984;2023-09-19T01:42:57;14.60;99.90
57434;DHT22;43277;52.672;6.984;2023-09-19T01:48:19;14.70;99.90
57434;DHT22;43277;52.672;6.984;2023-09-19T01:50:55;14.70;99.90
57434;DHT22;43277;52.672;6.984;2023-09-19T01:53:27;14.80;99.90
57434;DHT22;43277;52.672;6.984;2023-09-19T01:55:57;14.70;99.90
57434;DHT22;43277;52.672;6.984;2023-09-19T01:58:46;14.60;99.90
57434;DHT22;43277;52.672;6.984;2023-09-19T02:01:17;14.70;99.90
57434;DHT22;43277;52.672;6.984;2023-09-19T02:03:44;14.70;99.90
57434;DHT22;43277;52.672;6.984;2023-09-19T02:06:15;14.60;99.90
57434;DHT22;43277;52.672;6.984;2023-09-19T02:08:41;14.60;99.90
57434;DHT22;43277;52.672;6.984;2023-09-19T02:11:07;14.50;99.90
57434;DHT22;43277;52.672;6.984;2023-09-19T02:13:32;14.60;99.90
57434;DHT22;43277;52.672;6.984;2023-09-19T02:15:59;14.50;99.90
57434;DHT22;43277;52.672;6.984;2023-09-19T02:18:25;14.60;99.90
57434;DHT22;43277;52.672;6.984;2023-09-19T02:20:53;14.70;99.90
57434;DHT22;43277;52.672;6.984;2023-09-19T02:23:19;14.70;99.90
57434;DHT22;43277;52.672;6.984;2023-09-19T02:25:53;14.60;99.90
57434;DHT22;43277;52.672;6.984;2023-09-19T02:28:19;14.60;99.90
57434;DHT22;43277;52.672;6.984;2023-09-19T02:30:48;14.60;99.90
57434;DHT22;43277;52.672;6.984;2023-09-19T02:33:14;14.40;99.90
57434;DHT22;43277;52.672;6.984;2023-09-19T02:35:40;14.50;99.90
57434;DHT22;43277;52.672;6.984;2023-09-19T02:38:06;14.40;99.90
57434;DHT22;43277;52.672;6.984;2023-09-19T02:40:33;14.40;99.90
57434;DHT22;43277;52.672;6.984;2023-09-19T02:43:01;14.40;99.90
57434;DHT22;43277;52.672;6.984;2023-09-19T02:45:27;14.50;99.90
57434;DHT22;43277;52.672;6.984;2023-09-19T02:47:53;14.40;99.90
57434;DHT22;43277;52.672;6.984;2023-09-19T02:50:20;14.40;99.90
57434;DHT22;43277;52.672;6.984;2023-09-19T02:52:46;14.30;99.90
57434;DHT22;43277;52.672;6.984;2023-09-19T02:55:19;14.30;99.90
57434;DHT22;43277;52.672;6.984;2023-09-19T02:57:48;14.30;99.90
57434;DHT22;43277;52.672;6.984;2023-09-19T03:00:14;14.40;99.90
57434;DHT22;43277;52.672;6.984;2023-09-19T03:02:40;14.20;99.90
57434;DHT22;43277;52.672;6.984;2023-09-19T03:05:07;14.40;99.90
57434;DHT22;43277;52.672;6.984;2023-09-19T03:07:33;14.30;99.90
57434;DHT22;43277;52.672;6.984;2023-09-19T03:09:59;14.30;99.90
57434;DHT22;43277;52.672;6.984;2023-09-19T03:12:25;14.40;99.90
57434;DHT22;43277;52.672;6.984;2023-09-19T03:14:51;14.40;99.90
57434;DHT22;43277;52.672;6.984;2023-09-19T03:17:17;14.40;99.90
57434;DHT22;43277;52.672;6.984;2023-09-19T03:19:45;14.30;99.90
57434;DHT22;43277;52.672;6.984;2023-09-19T03:22:10;14.20;99.90
57434;DHT22;43277;52.672;6.984;2023-09-19T03:24:36;14.10;99.90
57434;DHT22;43277;52.672;6.984;2023-09-19T03:27:03;14.40;99.90
57434;DHT22;43277;52.672;6.984;2023-09-19T03:29:28;14.40;99.90
57434;DHT22;43277;52.672;6.984;2023-09-19T03:31:54;14.30;99.90
57434;DHT22;43277;52.672;6.984;2023-09-19T03:34:20;14.20;99.90
57434;DHT22;43277;52.672;6.984;2023-09-19T03:36:46;14.20;99.90
57434;DHT22;43277;52.672;6.984;2023-09-19T03:39:11;14.30;99.90
57434;DHT22;43277;52.672;6.984;2023-09-19T03:41:37;14.30;99.90
57434;DHT22;43277;52.672;6.984;2023-09-19T03:44:04;14.20;99.90
57434;DHT22;43277;52.672;6.984;2023-09-19T03:46:30;14.10;99.90
57434;DHT22;43277;52.672;6.984;2023-09-19T03:48:55;14.20;99.90
57434;DHT22;43277;52.672;6.984;2023-09-19T03:51:21;14.20;99.90
57434;DHT22;43277;52.672;6.984;2023-09-19T03:53:47;14.40;99.90
57434;DHT22;43277;52.672;6.984;2023-09-19T03:56:14;14.20;99.90
57434;DHT22;43277;52.672;6.984;2023-09-19T03:58:40;14.30;99.90
57434;DHT22;43277;52.672;6.984;2023-09-19T04:01:06;14.40;99.90
57434;DHT22;43277;52.672;6.984;2023-09-19T04:03:34;14.40;99.90
57434;DHT22;43277;52.672;6.984;2023-09-19T04:06:12;14.40;99.90
57434;DHT22;43277;52.672;6.984;2023-09-19T04:08:38;14.50;99.90
57434;DHT22;43277;52.672;6.984;2023-09-19T04:11:04;14.50;99.90
57434;DHT22;43277;52.672;6.984;2023-09-19T04:13:29;14.50;99.90
57434;DHT22;43277;52.672;6.984;2023-09-19T04:15:55;14.50;99.90
57434;DHT22;43277;52.672;6.984;2023-09-19T04:18:21;14.50;99.90
57434;DHT22;43277;52.672;6.984;2023-09-19T04:20:52;14.70;99.90
57434;DHT22;43277;52.672;6.984;2023-09-19T04:23:18;14.70;99.90
57434;DHT22;43277;52.672;6.984;2023-09-19T04:25:46;14.70;99.90
57434;DHT22;43277;52.672;6.984;2023-09-19T04:28:12;14.80;99.90
57434;DHT22;43277;52.672;6.984;2023-09-19T04:30:38;14.80;99.90
57434;DHT22;43277;52.672;6.984;2023-09-19T04:33:06;14.80;99.90
57434;DHT22;43277;52.672;6.984;2023-09-19T04:35:32;14.80;99.90
57434;DHT22;43277;52.672;6.984;2023-09-19T04:37:58;14.80;99.90
57434;DHT22;43277;52.672;6.984;2023-09-19T04:40:24;14.80;99.90
57434;DHT22;43277;52.672;6.984;2023-09-19T04:42:57;14.80;99.90
57434;DHT22;43277;52.672;6.984;2023-09-19T04:45:23;14.70;99.90
57434;DHT22;43277;52.672;6.984;2023-09-19T04:47:49;14.60;99.90
57434;DHT22;43277;52.672;6.984;2023-09-19T04:50:15;14.60;99.90
57434;DHT22;43277;52.672;6.984;2023-09-19T04:52:43;14.60;99.90
57434;DHT22;43277;52.672;6.984;2023-09-19T04:55:16;14.60;99.90
57434;DHT22;43277;52.672;6.984;2023-09-19T04:57:43;14.50;99.90
57434;DHT22;43277;52.672;6.984;2023-09-19T05:00:11;14.50;99.90
57434;DHT22;43277;52.672;6.984;2023-09-19T05:02:38;14.40;99.90
57434;DHT22;43277;52.672;6.984;2023-09-19T05:05:06;14.40;99.90
57434;DHT22;43277;52.672;6.984;2023-09-19T05:07:32;14.40;99.90
57434;DHT22;43277;52.672;6.984;2023-09-19T05:09:59;14.40;99.90
57434;DHT22;43277;52.672;6.984;2023-09-19T05:12:26;14.40;99.90
57434;DHT22;43277;52.672;6.984;2023-09-19T05:14:52;14.40;99.90
57434;DHT22;43277;52.672;6.984;2023-09-19T05:17:18;14.50;99.90
57434;DHT22;43277;52.672;6.984;2023-09-19T05:19:44;14.40;99.90
57434;DHT22;43277;52.672;6.984;2023-09-19T05:22:11;14.40;99.90
57434;DHT22;43277;52.672;6.984;2023-09-19T05:24:38;14.30;99.90
57434;DHT22;43277;52.672;6.984;2023-09-19T05:27:04;14.30;99.90
57434;DHT22;43277;52.672;6.984;2023-09-19T05:29:32;14.20;99.90
57434;DHT22;43277;52.672;6.984;2023-09-19T05:31:59;14.10;99.90
57434;DHT22;43277;52.672;6.984;2023-09-19T05:34:24;14.20;99.90
57434;DHT22;43277;52.672;6.984;2023-09-19T05:36:53;14.10;99.90
57434;DHT22;43277;52.672;6.984;2023-09-19T05:39:19;14.30;99.90
57434;DHT22;43277;52.672;6.984;2023-09-19T05:41:45;14.20;99.90
57434;DHT22;43277;52.672;6.984;2023-09-19T05:44:13;14.20;99.90
57434;DHT22;43277;52.672;6.984;2023-09-19T05:46:39;14.30;99.90
57434;DHT22;43277;52.672;6.984;2023-09-19T05:49:05;14.20;99.90
57434;DHT22;43277;52.672;6.984;2023-09-19T05:51:31;14.10;99.90
57434;DHT22;43277;52.672;6.984;2023-09-19T05:53:56;14.10;99.90
57434;DHT22;43277;52.672;6.984;2023-09-19T05:56:23;14.00;99.90
57434;DHT22;43277;52.672;6.984;2023-09-19T05:58:49;14.00;99.90
57434;DHT22;43277;52.672;6.984;2023-09-19T06:01:17;14.00;99.90
57434;DHT22;43277;52.672;6.984;2023-09-19T06:03:43;14.00;99.90
57434;DHT22;43277;52.672;6.984;2023-09-19T06:06:08;14.10;99.90
57434;DHT22;43277;52.672;6.984;2023-09-19T06:08:34;14.10;99.90
57434;DHT22;43277;52.672;6.984;2023-09-19T06:11:00;14.00;99.90
57434;DHT22;43277;52.672;6.984;2023-09-19T06:13:28;14.10;99.90
57434;DHT22;43277;52.672;6.984;2023-09-19T06:15:55;14.30;99.90
57434;DHT22;43277;52.672;6.984;2023-09-19T06:18:21;14.40;99.90
57434;DHT22;43277;52.672;6.984;2023-09-19T06:20:52;14.40;99.90
57434;DHT22;43277;52.672;6.984;2023-09-19T06:23:18;14.50;99.90
57434;DHT22;43277;52.672;6.984;2023-09-19T06:25:45;14.60;99.90
57434;DHT22;43277;52.672;6.984;2023-09-19T06:28:11;14.60;99.90
57434;DHT22;43277;52.672;6.984;2023-09-19T06:30:42;14.70;99.90
57434;DHT22;43277;52.672;6.984;2023-09-19T06:33:08;14.70;99.90
57434;DHT22;43277;52.672;6.984;2023-09-19T06:35:34;14.80;99.90
57434;DHT22;43277;52.672;6.984;2023-09-19T06:38:02;14.80;99.90
57434;DHT22;43277;52.672;6.984;2023-09-19T06:40:28;14.80;99.90
57434;DHT22;43277;52.672;6.984;2023-09-19T06:42:56;14.80;99.90
57434;DHT22;43277;52.672;6.984;2023-09-19T06:45:22;14.80;99.90
57434;DHT22;43277;52.672;6.984;2023-09-19T06:47:51;14.80;99.90
57434;DHT22;43277;52.672;6.984;2023-09-19T06:50:18;14.80;99.90
57434;DHT22;43277;52.672;6.984;2023-09-19T06:52:45;14.80;99.90
57434;DHT22;43277;52.672;6.984;2023-09-19T06:55:13;14.80;99.90
57434;DHT22;43277;52.672;6.984;2023-09-19T06:57:41;14.70;99.90
57434;DHT22;43277;52.672;6.984;2023-09-19T07:00:09;14.80;99.90
57434;DHT22;43277;52.672;6.984;2023-09-19T07:02:41;14.80;99.90
57434;DHT22;43277;52.672;6.984;2023-09-19T07:05:07;14.80;99.90
57434;DHT22;43277;52.672;6.984;2023-09-19T07:07:33;14.80;99.90
57434;DHT22;43277;52.672;6.984;2023-09-19T07:10:01;14.80;99.90
57434;DHT22;43277;52.672;6.984;2023-09-19T07:12:27;14.80;99.90
57434;DHT22;43277;52.672;6.984;2023-09-19T07:14:52;14.80;99.90
57434;DHT22;43277;52.672;6.984;2023-09-19T07:17:18;14.70;99.90
57434;DHT22;43277;52.672;6.984;2023-09-19T07:19:44;14.90;99.90
57434;DHT22;43277;52.672;6.984;2023-09-19T07:22:10;14.80;99.90
57434;DHT22;43277;52.672;6.984;2023-09-19T07:24:36;15.00;99.90
57434;DHT22;43277;52.672;6.984;2023-09-19T07:27:02;14.90;99.90
57434;DHT22;43277;52.672;6.984;2023-09-19T07:29:28;15.00;99.90
57434;DHT22;43277;52.672;6.984;2023-09-19T07:31:53;15.10;99.90
57434;DHT22;43277;52.672;6.984;2023-09-19T07:34:19;15.30;99.90
57434;DHT22;43277;52.672;6.984;2023-09-19T07:36:47;15.40;99.90
57434;DHT22;43277;52.672;6.984;2023-09-19T07:39:13;15.50;99.90
57434;DHT22;43277;52.672;6.984;2023-09-19T07:41:39;15.50;99.90
57434;DHT22;43277;52.672;6.984;2023-09-19T07:44:04;15.70;99.90
57434;DHT22;43277;52.672;6.984;2023-09-19T07:46:30;15.80;99.90
57434;DHT22;43277;52.672;6.984;2023-09-19T07:48:57;15.80;99.90
57434;DHT22;43277;52.672;6.984;2023-09-19T07:51:23;15.90;99.90
57434;DHT22;43277;52.672;6.984;2023-09-19T07:53:48;16.00;99.90
57434;DHT22;43277;52.672;6.984;2023-09-19T07:56:14;15.90;99.90
57434;DHT22;43277;52.672;6.984;2023-09-19T07:58:40;16.00;99.90
57434;DHT22;43277;52.672;6.984;2023-09-19T08:01:09;16.00;99.90
57434;DHT22;43277;52.672;6.984;2023-09-19T08:03:39;16.20;99.90
57434;DHT22;43277;52.672;6.984;2023-09-19T08:06:07;16.20;99.90
57434;DHT22;43277;52.672;6.984;2023-09-19T08:08:34;16.30;99.90
57434;DHT22;43277;52.672;6.984;2023-09-19T08:11:04;16.30;99.90
57434;DHT22;43277;52.672;6.984;2023-09-19T08:13:37;16.30;99.90
57434;DHT22;43277;52.672;6.984;2023-09-19T08:16:05;16.30;99.90
57434;DHT22;43277;52.672;6.984;2023-09-19T08:18:31;16.40;99.90
57434;DHT22;43277;52.672;6.984;2023-09-19T08:20:57;16.40;99.90
57434;DHT22;43277;52.672;6.984;2023-09-19T08:23:24;16.40;99.90
57434;DHT22;43277;52.672;6.984;2023-09-19T08:25:50;16.30;99.90
57434;DHT22;43277;52.672;6.984;2023-09-19T08:28:16;16.60;99.90
57434;DHT22;43277;52.672;6.984;2023-09-19T08:30:47;16.60;99.90
57434;DHT22;43277;52.672;6.984;2023-09-19T08:33:13;16.50;99.90
57434;DHT22;43277;52.672;6.984;2023-09-19T08:35:41;16.50;99.90
57434;DHT22;43277;52.672;6.984;2023-09-19T08:38:09;16.60;99.90
57434;DHT22;43277;52.672;6.984;2023-09-19T08:40:39;16.60;99.90
57434;DHT22;43277;52.672;6.984;2023-09-19T08:43:07;16.70;99.90
57434;DHT22;43277;52.672;6.984;2023-09-19T08:45:33;16.70;99.90
57434;DHT22;43277;52.672;6.984;2023-09-19T08:48:12;16.60;99.90
57434;DHT22;43277;52.672;6.984;2023-09-19T08:50:51;16.70;99.90
57434;DHT22;43277;52.672;6.984;2023-09-19T08:53:43;16.80;99.90
57434;DHT22;43277;52.672;6.984;2023-09-19T08:56:13;16.90;99.90
57434;DHT22;43277;52.672;6.984;2023-09-19T08:58:44;17.00;99.90
57434;DHT22;43277;52.672;6.984;2023-09-19T09:01:11;16.90;99.90
57434;DHT22;43277;52.672;6.984;2023-09-19T09:03:40;17.10;99.90
57434;DHT22;43277;52.672;6.984;2023-09-19T09:06:08;17.20;99.90
57434;DHT22;43277;52.672;6.984;2023-09-19T09:08:36;17.10;99.90
57434;DHT22;43277;52.672;6.984;2023-09-19T09:11:03;17.20;99.90
57434;DHT22;43277;52.672;6.984;2023-09-19T09:13:29;17.20;99.90
57434;DHT22;43277;52.672;6.984;2023-09-19T09:15:55;17.20;99.90
57434;DHT22;43277;52.672;6.984;2023-09-19T09:18:20;17.10;99.90
57434;DHT22;43277;52.672;6.984;2023-09-19T09:20:48;17.30;99.90
57434;DHT22;43277;52.672;6.984;2023-09-19T09:23:14;17.30;99.90
57434;DHT22;43277;52.672;6.984;2023-09-19T09:25:50;17.40;99.90
57434;DHT22;43277;52.672;6.984;2023-09-19T09:28:21;17.50;99.90
57434;DHT22;43277;52.672;6.984;2023-09-19T09:30:47;17.70;99.90
57434;DHT22;43277;52.672;6.984;2023-09-19T09:33:14;17.90;99.90
57434;DHT22;43277;52.672;6.984;2023-09-19T09:35:58;17.90;99.90
57434;DHT22;43277;52.672;6.984;2023-09-19T09:38:42;18.10;99.90
57434;DHT22;43277;52.672;6.984;2023-09-19T09:41:09;18.10;99.90
57434;DHT22;43277;52.672;6.984;2023-09-19T09:43:36;18.20;99.90
57434;DHT22;43277;52.672;6.984;2023-09-19T09:46:13;18.20;99.90
57434;DHT22;43277;52.672;6.984;2023-09-19T09:51:40;18.40;99.90
57434;DHT22;43277;52.672;6.984;2023-09-19T09:54:18;18.40;99.90
57434;DHT22;43277;52.672;6.984;2023-09-19T09:59:18;18.40;99.90
57434;DHT22;43277;52.672;6.984;2023-09-19T10:01:49;18.40;99.90
57434;DHT22;43277;52.672;6.984;2023-09-19T10:04:28;18.50;99.90
57434;DHT22;43277;52.672;6.984;2023-09-19T10:07:01;18.60;99.90
57434;DHT22;43277;52.672;6.984;2023-09-19T10:09:45;18.70;99.90
57434;DHT22;43277;52.672;6.984;2023-09-19T10:12:13;18.70;99.90
57434;DHT22;43277;52.672;6.984;2023-09-19T10:14:41;18.70;99.90
57434;DHT22;43277;52.672;6.984;2023-09-19T10:17:10;18.80;99.90
57434;DHT22;43277;52.672;6.984;2023-09-19T10:19:40;18.80;99.90
57434;DHT22;43277;52.672;6.984;2023-09-19T10:22:12;18.80;99.90
57434;DHT22;43277;52.672;6.984;2023-09-19T10:24:40;18.70;99.90
57434;DHT22;43277;52.672;6.984;2023-09-19T10:27:06;18.60;99.90
57434;DHT22;43277;52.672;6.984;2023-09-19T10:29:39;18.60;99.90
57434;DHT22;43277;52.672;6.984;2023-09-19T10:32:05;18.50;99.90
57434;DHT22;43277;52.672;6.984;2023-09-19T10:34:35;18.30;99.90
57434;DHT22;43277;52.672;6.984;2023-09-19T10:37:02;18.30;99.90
57434;DHT22;43277;52.672;6.984;2023-09-19T10:39:32;18.30;99.90
57434;DHT22;43277;52.672;6.984;2023-09-19T10:42:02;18.40;99.90
57434;DHT22;43277;52.672;6.984;2023-09-19T10:44:32;18.50;99.90
57434;DHT22;43277;52.672;6.984;2023-09-19T10:46:58;18.60;99.90
57434;DHT22;43277;52.672;6.984;2023-09-19T10:49:24;18.70;99.90
57434;DHT22;43277;52.672;6.984;2023-09-19T10:51:56;18.80;99.90
57434;DHT22;43277;52.672;6.984;2023-09-19T10:54:27;18.80;99.90
57434;DHT22;43277;52.672;6.984;2023-09-19T10:56:55;18.90;99.90
57434;DHT22;43277;52.672;6.984;2023-09-19T10:59:24;19.10;99.90
57434;DHT22;43277;52.672;6.984;2023-09-19T11:01:51;19.10;99.90
57434;DHT22;43277;52.672;6.984;2023-09-19T11:07:22;19.20;99.90
57434;DHT22;43277;52.672;6.984;2023-09-19T11:09:54;19.10;99.90
57434;DHT22;43277;52.672;6.984;2023-09-19T11:14:55;19.10;99.90
57434;DHT22;43277;52.672;6.984;2023-09-19T11:30:44;18.90;99.90
57434;DHT22;43277;52.672;6.984;2023-09-19T11:33:20;19.00;99.90
57434;DHT22;43277;52.672;6.984;2023-09-19T11:36:05;19.00;99.90
57434;DHT22;43277;52.672;6.984;2023-09-19T11:43:53;19.10;99.90
57434;DHT22;43277;52.672;6.984;2023-09-19T11:46:24;19.10;99.90
57434;DHT22;43277;52.672;6.984;2023-09-19T11:48:51;19.40;99.90
57434;DHT22;43277;52.672;6.984;2023-09-19T11:51:24;19.30;99.90
57434;DHT22;43277;52.672;6.984;2023-09-19T11:53:54;19.30;99.90
57434;DHT22;43277;52.672;6.984;2023-09-19T11:56:23;19.50;99.90
57434;DHT22;43277;52.672;6.984;2023-09-19T11:58:51;19.50;99.90
57434;DHT22;43277;52.672;6.984;2023-09-19T12:01:24;19.50;99.90
57434;DHT22;43277;52.672;6.984;2023-09-19T12:03:54;19.50;99.90
57434;DHT22;43277;52.672;6.984;2023-09-19T12:06:23;19.60;99.90
57434;DHT22;43277;52.672;6.984;2023-09-19T12:08:49;19.50;99.90
57434;DHT22;43277;52.672;6.984;2023-09-19T12:11:17;19.50;99.90
57434;DHT22;43277;52.672;6.984;2023-09-19T12:13:47;19.60;99.90
57434;DHT22;43277;52.672;6.984;2023-09-19T12:16:20;19.80;99.90
57434;DHT22;43277;52.672;6.984;2023-09-19T12:18:50;19.80;99.90
57434;DHT22;43277;52.672;6.984;2023-09-19T12:21:30;19.90;99.90
57434;DHT22;43277;52.672;6.984;2023-09-19T12:26:40;19.80;99.90
57434;DHT22;43277;52.672;6.984;2023-09-19T12:29:19;19.80;99.90
57434;DHT22;43277;52.672;6.984;2023-09-19T12:31:58;19.50;99.90
57434;DHT22;43277;52.672;6.984;2023-09-19T12:34:28;19.50;99.90
57434;DHT22;43277;52.672;6.984;2023-09-19T12:37:14;19.70;99.90
57434;DHT22;43277;52.672;6.984;2023-09-19T12:40:06;20.00;99.90
57434;DHT22;43277;52.672;6.984;2023-09-19T12:42:46;20.20;99.90
57434;DHT22;43277;52.672;6.984;2023-09-19T12:45:12;20.40;99.90
57434;DHT22;43277;52.672;6.984;2023-09-19T12:47:40;20.60;99.90
57434;DHT22;43277;52.672;6.984;2023-09-19T12:50:26;20.90;98.90
57434;DHT22;43277;52.672;6.984;2023-09-19T12:52:55;20.80;99.30
57434;DHT22;43277;52.672;6.984;2023-09-19T12:55:28;20.60;99.40
57434;DHT22;43277;52.672;6.984;2023-09-19T12:58:08;20.30;99.90
57434;DHT22;43277;52.672;6.984;2023-09-19T13:00:39;20.10;99.90
57434;DHT22;43277;52.672;6.984;2023-09-19T13:03:28;20.00;99.90
57434;DHT22;43277;52.672;6.984;2023-09-19T13:06:01;19.70;99.90
57434;DHT22;43277;52.672;6.984;2023-09-19T13:08:31;19.60;99.90
57434;DHT22;43277;52.672;6.984;2023-09-19T13:11:14;19.70;99.90
57434;DHT22;43277;52.672;6.984;2023-09-19T13:13:48;19.90;99.90
57434;DHT22;43277;52.672;6.984;2023-09-19T13:16:15;20.10;99.90
57434;DHT22;43277;52.672;6.984;2023-09-19T13:18:53;20.10;99.90
57434;DHT22;43277;52.672;6.984;2023-09-19T13:21:31;20.20;99.90
57434;DHT22;43277;52.672;6.984;2023-09-19T13:24:24;20.30;99.80
57434;DHT22;43277;52.672;6.984;2023-09-19T13:26:56;20.20;99.90
57434;DHT22;43277;52.672;6.984;2023-09-19T13:29:22;20.00;99.90
57434;DHT22;43277;52.672;6.984;2023-09-19T13:31:52;20.00;99.90
57434;DHT22;43277;52.672;6.984;2023-09-19T13:34:19;19.90;99.90
57434;DHT22;43277;52.672;6.984;2023-09-19T13:36:45;19.90;99.90
57434;DHT22;43277;52.672;6.984;2023-09-19T13:39:14;19.90;99.90
57434;DHT22;43277;52.672;6.984;2023-09-19T13:41:41;19.80;99.90
57434;DHT22;43277;52.672;6.984;2023-09-19T13:44:08;19.60;99.90
57434;DHT22;43277;52.672;6.984;2023-09-19T13:46:36;19.60;99.90
57434;DHT22;43277;52.672;6.984;2023-09-19T13:49:02;19.50;99.90
57434;DHT22;43277;52.672;6.984;2023-09-19T13:51:30;19.40;99.90
57434;DHT22;43277;52.672;6.984;2023-09-19T13:53:56;19.50;99.90
57434;DHT22;43277;52.672;6.984;2023-09-19T13:56:21;19.40;99.90
57434;DHT22;43277;52.672;6.984;2023-09-19T13:58:47;19.20;99.90
57434;DHT22;43277;52.672;6.984;2023-09-19T14:01:13;19.20;99.90
57434;DHT22;43277;52.672;6.984;2023-09-19T14:03:40;19.20;99.90
57434;DHT22;43277;52.672;6.984;2023-09-19T14:06:06;19.20;99.90
57434;DHT22;43277;52.672;6.984;2023-09-19T14:08:32;19.10;99.90
57434;DHT22;43277;52.672;6.984;2023-09-19T14:11:05;19.10;99.90
57434;DHT22;43277;52.672;6.984;2023-09-19T14:13:31;19.20;99.90
57434;DHT22;43277;52.672;6.984;2023-09-19T14:15:56;19.10;99.90
57434;DHT22;43277;52.672;6.984;2023-09-19T14:18:22;19.10;99.90
57434;DHT22;43277;52.672;6.984;2023-09-19T14:20:47;19.10;99.90
57434;DHT22;43277;52.672;6.984;2023-09-19T14:23:13;19.20;99.90
57434;DHT22;43277;52.672;6.984;2023-09-19T14:25:39;19.20;99.90
57434;DHT22;43277;52.672;6.984;2023-09-19T14:28:05;19.20;99.90
57434;DHT22;43277;52.672;6.984;2023-09-19T14:30:33;19.20;99.90
57434;DHT22;43277;52.672;6.984;2023-09-19T14:32:58;19.20;99.90
57434;DHT22;43277;52.672;6.984;2023-09-19T14:35:24;19.20;99.90
57434;DHT22;43277;52.672;6.984;2023-09-19T14:37:50;19.20;99.90
57434;DHT22;43277;52.672;6.984;2023-09-19T14:40:16;19.30;99.90
57434;DHT22;43277;52.672;6.984;2023-09-19T14:42:43;19.30;99.90
57434;DHT22;43277;52.672;6.984;2023-09-19T14:45:11;19.20;99.90
57434;DHT22;43277;52.672;6.984;2023-09-19T14:47:37;19.20;99.90
57434;DHT22;43277;52.672;6.984;2023-09-19T14:50:03;19.00;99.90
57434;DHT22;43277;52.672;6.984;2023-09-19T14:52:35;19.00;99.90
57434;DHT22;43277;52.672;6.984;2023-09-19T14:55:02;19.00;99.90
57434;DHT22;43277;52.672;6.984;2023-09-19T14:57:28;19.10;99.90
57434;DHT22;43277;52.672;6.984;2023-09-19T14:59:53;19.10;99.90
57434;DHT22;43277;52.672;6.984;2023-09-19T15:02:20;19.20;99.90
57434;DHT22;43277;52.672;6.984;2023-09-19T15:04:46;19.20;99.90
57434;DHT22;43277;52.672;6.984;2023-09-19T15:07:15;19.20;99.90
57434;DHT22;43277;52.672;6.984;2023-09-19T15:09:41;19.30;99.90
57434;DHT22;43277;52.672;6.984;2023-09-19T15:12:07;19.30;99.90
57434;DHT22;43277;52.672;6.984;2023-09-19T15:14:33;19.40;99.90
57434;DHT22;43277;52.672;6.984;2023-09-19T15:16:59;19.30;99.90
57434;DHT22;43277;52.672;6.984;2023-09-19T15:19:24;19.30;99.90
57434;DHT22;43277;52.672;6.984;2023-09-19T15:21:50;19.40;99.90
57434;DHT22;43277;52.672;6.984;2023-09-19T15:24:15;19.40;99.90
57434;DHT22;43277;52.672;6.984;2023-09-19T15:26:43;19.40;99.90
57434;DHT22;43277;52.672;6.984;2023-09-19T15:29:10;19.40;99.90
57434;DHT22;43277;52.672;6.984;2023-09-19T15:31:36;19.40;99.90
57434;DHT22;43277;52.672;6.984;2023-09-19T15:34:02;19.30;99.90
57434;DHT22;43277;52.672;6.984;2023-09-19T15:36:28;19.30;99.90
57434;DHT22;43277;52.672;6.984;2023-09-19T15:39:02;19.30;99.90
57434;DHT22;43277;52.672;6.984;2023-09-19T15:41:31;19.30;99.90
57434;DHT22;43277;52.672;6.984;2023-09-19T15:43:57;19.20;99.90
57434;DHT22;43277;52.672;6.984;2023-09-19T15:46:24;19.30;99.90
57434;DHT22;43277;52.672;6.984;2023-09-19T15:48:55;19.30;99.90
57434;DHT22;43277;52.672;6.984;2023-09-19T15:51:21;19.30;99.90
57434;DHT22;43277;52.672;6.984;2023-09-19T15:53:48;19.30;99.90
57434;DHT22;43277;52.672;6.984;2023-09-19T15:56:15;19.30;99.90
57434;DHT22;43277;52.672;6.984;2023-09-19T15:58:44;19.30;99.90
57434;DHT22;43277;52.672;6.984;2023-09-19T16:01:10;19.30;99.90
57434;DHT22;43277;52.672;6.984;2023-09-19T16:03:43;19.20;99.90
57434;DHT22;43277;52.672;6.984;2023-09-19T16:06:13;19.20;99.90
57434;DHT22;43277;52.672;6.984;2023-09-19T16:08:40;19.20;99.90
57434;DHT22;43277;52.672;6.984;2023-09-19T16:11:06;19.20;99.90
57434;DHT22;43277;52.672;6.984;2023-09-19T16:13:32;19.30;99.90
57434;DHT22;43277;52.672;6.984;2023-09-19T16:15:57;19.20;99.90
57434;DHT22;43277;52.672;6.984;2023-09-19T16:18:23;19.20;99.90
57434;DHT22;43277;52.672;6.984;2023-09-19T16:20:49;19.20;99.90
57434;DHT22;43277;52.672;6.984;2023-09-19T16:23:15;19.10;99.90